Погода Рыковщинана 2 недели

Смоленская область, Россия

23 мая-05 июня
  • 23мая
    Сегодня
    +8°
    +24°
    Ясно и безоблачно
    ВремяПогодаТемператураВлажностьДавлениеВетер, м/сВероятность осадков
    00:00Ясно и безоблачно+13°C87 %751 мм3.2 м/с2 %
    03:00Ясно и безоблачно+11°C58 %752 мм3.1 м/с2 %
    06:00Ясно и безоблачно+11°C62 %753 мм3.4 м/с2 %
    09:00Ясно и безоблачно+17°C56 %754 мм3.7 м/с2 %
    12:00Ясно и безоблачно+22°C44 %754 мм4.9 м/с2 %
    15:00Ясно и безоблачно+23°C38 %754 мм4.4 м/с2 %
    18:00Ясно и безоблачно+23°C40 %754 мм4.3 м/с2 %
    21:00Ясно и безоблачно+17°C49 %755 мм3.7 м/с2 %
  • 24мая
    Пятница
    +7°
    +21°
    Ясно и безоблачно
    ВремяПогодаТемператураВлажностьДавлениеВетер, м/сВероятность осадков
    00:00Ясно и безоблачно+12°C57 %756 мм3.1 м/с2 %
    03:00Ясно и безоблачно+10°C63 %757 мм3.3 м/с2 %
    06:00Ясно и безоблачно+10°C63 %758 мм3.4 м/с2 %
    09:00Ясно и безоблачно+16°C50 %758 мм3.7 м/с2 %
    12:00Ясно и безоблачно+20°C39 %758 мм3.9 м/с2 %
    15:00Ясно и безоблачно+21°C35 %757 мм3.8 м/с2 %
    18:00Ясно и безоблачно+21°C35 %757 мм3.4 м/с2 %
    21:00Ясно и безоблачно+15°C51 %756 мм2.8 м/с2 %
  • 25мая
    Суббота
    +7°
    +24°
    Ясно и безоблачно
    ВремяПогодаТемператураВлажностьДавлениеВетер, м/сВероятность осадков
    00:00Ясно и безоблачно+10°C58 %757 мм2.9 м/с2 %
    03:00Ясно и безоблачно+8°C67 %757 мм2.6 м/с2 %
    06:00Ясно и безоблачно+8°C71 %757 мм2.7 м/с2 %
    09:00Ясно и безоблачно+16°C58 %756 мм2.4 м/с2 %
    12:00Ясно и безоблачно+22°C43 %756 мм2.6 м/с2 %
    15:00Ясно и безоблачно+23°C37 %755 мм2.7 м/с2 %
    18:00Ясно и безоблачно+23°C40 %754 мм2.1 м/с2 %
    21:00Ясно и безоблачно+16°C67 %753 мм2.2 м/с2 %
  • 26мая
    Воскресенье
    +8°
    +26°
    Ясно и безоблачно
    ВремяПогодаТемператураВлажностьДавлениеВетер, м/сВероятность осадков
    00:00Ясно и безоблачно+11°C72 %753 мм2.1 м/с2 %
    03:00Ясно и безоблачно+8°C78 %753 мм2.4 м/с2 %
    06:00Ясно и безоблачно+10°C76 %753 мм1.5 м/с2 %
    09:00Небольшая облачность+19°C57 %754 мм0.6 м/с4 %
    12:00Практически безоблачно+23°C41 %754 мм0.8 м/с2 %
    15:00Ясно и безоблачно+24°C39 %753 мм0.5 м/с12 %
    18:00Облачно с прояснениями+25°C40 %753 мм1.3 м/с12 %
    21:00Облачно с прояснениями+21°C45 %752 мм0.9 м/с5 %
  • 27мая
    Понедельник
    +11°
    +25°
    Практически безоблачно
    ВремяПогодаТемператураВлажностьДавлениеВетер, м/сВероятность осадков
    00:00Ясно и безоблачно+13°C70 %753 мм1.9 м/с2 %
    03:00Практически безоблачно+10°C80 %753 мм2.0 м/с2 %
    06:00Ясно и безоблачно+11°C85 %754 мм1.5 м/с2 %
    09:00Ясно и безоблачно+20°C69 %754 мм1.3 м/с4 %
    12:00Практически безоблачно+25°C46 %754 мм2.3 м/с20 %
    15:00Практически безоблачно+25°C46 %754 мм1.4 м/с27 %
    18:00Небольшая облачность+25°C49 %753 мм1.4 м/с29 %
    21:00Небольшая облачность+19°C74 %753 мм1.8 м/с10 %
Мы используем cookies
Соглашаюсь